Jardim De Angicos, Brazil
Current Conditions -  °F | °C
As of 3:00 PM on Monday 20 Oct 2014 (Local Time) from SBNT Reporting Station
Broken Clouds Broken Clouds  
Wind Chill: 28°   Ceiling: 3000
Heat Index: 29°   Visibility: 6mi
Dew Point: 19°   Wind: 22mph
Humidity: 58%   Direction: 110°ESE
Pressure: 29.85"   Gusts: NA
Location:  5.65°S, 35.98°W
Report Text: SBNT 201800Z 11019KT 9999 BKN030 28/19 Q1011
Loading
Personal Weather Stations






























Interactive Weather Map
Tropical Storm Tracking
New forecast layout! Learn more

10-Day Weather Forecast

Advertisements
Track Severe Weather on mobile